createdAt,value
2022-09-10T00:02:09.932Z,15.00
2022-09-10T00:04:37.517Z,15.00
2022-09-10T00:07:05.105Z,14.90
2022-09-10T00:09:32.681Z,15.00
2022-09-10T00:12:01.610Z,15.00
2022-09-10T00:14:29.193Z,14.90
2022-09-10T00:16:57.491Z,15.00
2022-09-10T00:19:25.067Z,15.20
2022-09-10T00:21:52.621Z,15.20
2022-09-10T00:24:22.527Z,15.00
2022-09-10T00:26:50.102Z,14.80
2022-09-10T00:29:19.799Z,14.70
2022-09-10T00:31:47.445Z,14.60
2022-09-10T00:34:15.211Z,14.60
2022-09-10T00:36:44.284Z,14.60
2022-09-10T00:39:13.416Z,14.70
2022-09-10T00:41:42.430Z,14.70
2022-09-10T00:44:26.079Z,14.80
2022-09-10T00:46:55.613Z,14.70
2022-09-10T00:49:25.942Z,14.60
2022-09-10T00:51:54.501Z,14.80
2022-09-10T00:54:24.726Z,14.80
2022-09-10T00:56:53.110Z,14.80
2022-09-10T00:59:22.172Z,14.90
2022-09-10T01:01:50.147Z,14.90
2022-09-10T01:04:20.009Z,14.90
2022-09-10T01:06:49.938Z,14.90
2022-09-10T01:09:17.809Z,14.90
2022-09-10T01:11:57.592Z,14.80
2022-09-10T01:14:31.483Z,14.80
2022-09-10T01:17:07.158Z,14.60
2022-09-10T01:19:52.429Z,14.40
2022-09-10T01:22:25.075Z,14.40
2022-09-10T01:24:54.514Z,14.50
2022-09-10T01:27:38.519Z,14.50
2022-09-10T01:30:07.984Z,14.60
2022-09-10T01:32:39.742Z,14.70
2022-09-10T01:35:11.264Z,14.70
2022-09-10T01:37:39.953Z,14.70
2022-09-10T01:40:08.349Z,14.60
2022-09-10T01:42:38.312Z,14.50
2022-09-10T01:45:06.562Z,14.50
2022-09-10T01:47:40.071Z,14.40
2022-09-10T01:50:20.230Z,14.50
2022-09-10T01:52:54.622Z,14.40
2022-09-10T01:55:29.995Z,14.40
2022-09-10T01:58:00.934Z,14.40
2022-09-10T02:00:28.834Z,14.50
2022-09-10T02:02:59.134Z,14.70
2022-09-10T02:05:28.789Z,14.80
2022-09-10T02:07:59.732Z,14.80
2022-09-10T02:10:27.315Z,14.80
2022-09-10T02:12:55.170Z,14.80
2022-09-10T02:15:24.601Z,14.90
2022-09-10T02:17:53.632Z,15.00
2022-09-10T02:20:22.020Z,15.00
2022-09-10T02:22:50.895Z,15.00
2022-09-10T02:25:18.526Z,15.00
2022-09-10T02:27:46.134Z,15.00
2022-09-10T02:30:14.331Z,15.00
2022-09-10T02:32:43.399Z,15.00
2022-09-10T02:35:10.989Z,15.00
2022-09-10T02:37:38.582Z,14.90
2022-09-10T02:40:06.719Z,14.90
2022-09-10T02:42:34.336Z,14.90
2022-09-10T02:45:01.897Z,14.80
2022-09-10T02:47:30.053Z,14.80
2022-09-10T02:50:01.922Z,14.80
2022-09-10T02:52:30.086Z,14.80
2022-09-10T02:54:57.673Z,14.90
2022-09-10T02:57:25.290Z,15.00
2022-09-10T02:59:53.789Z,14.90
2022-09-10T03:02:21.442Z,14.90
2022-09-10T03:04:49.066Z,14.90
2022-09-10T03:07:20.128Z,14.90
2022-09-10T03:09:47.743Z,14.90
2022-09-10T03:12:16.187Z,15.00
2022-09-10T03:14:43.933Z,15.10
2022-09-10T03:17:11.941Z,15.10
2022-09-10T03:19:40.328Z,15.00
2022-09-10T03:22:07.935Z,14.90
2022-09-10T03:24:36.826Z,14.90
2022-09-10T03:27:04.841Z,14.80
2022-09-10T03:29:32.415Z,14.80
2022-09-10T03:32:01.176Z,14.80
2022-09-10T03:34:28.751Z,14.80
2022-09-10T03:36:56.361Z,14.80
2022-09-10T03:39:23.956Z,14.70
2022-09-10T03:41:52.969Z,14.60
2022-09-10T03:44:20.538Z,14.60
2022-09-10T03:46:49.432Z,14.60
2022-09-10T03:49:17.231Z,14.50
2022-09-10T03:51:44.852Z,14.50
2022-09-10T03:54:13.956Z,14.50
2022-09-10T03:56:41.568Z,14.50
2022-09-10T03:59:10.498Z,14.40
2022-09-10T04:01:38.094Z,14.40
2022-09-10T04:04:05.684Z,14.40
2022-09-10T04:06:33.352Z,14.40
2022-09-10T04:09:01.370Z,14.40
2022-09-10T04:11:29.206Z,14.30
2022-09-10T04:13:56.977Z,14.40
2022-09-10T04:16:25.933Z,14.40
2022-09-10T04:18:54.281Z,14.40
2022-09-10T04:21:23.127Z,14.40
2022-09-10T04:23:54.103Z,14.50
2022-09-10T04:26:22.340Z,14.50
2022-09-10T04:28:49.999Z,14.60
2022-09-10T04:31:17.662Z,14.60
2022-09-10T04:33:46.673Z,14.70
2022-09-10T04:36:14.583Z,14.70
2022-09-10T04:38:43.333Z,14.70
2022-09-10T04:41:10.976Z,14.70
2022-09-10T04:43:38.711Z,14.70
2022-09-10T04:46:06.414Z,14.60
2022-09-10T04:48:34.319Z,14.60
2022-09-10T04:51:16.252Z,14.60
2022-09-10T04:53:44.375Z,14.50
2022-09-10T04:56:12.150Z,14.50
2022-09-10T04:58:40.048Z,14.40
2022-09-10T05:01:07.857Z,14.40
2022-09-10T05:03:35.689Z,14.40
2022-09-10T05:06:04.949Z,14.40
2022-09-10T05:08:32.907Z,14.40
2022-09-10T05:11:02.662Z,14.30
2022-09-10T05:13:31.593Z,14.30
2022-09-10T05:15:59.692Z,14.20
2022-09-10T05:18:27.290Z,14.30
2022-09-10T05:20:54.903Z,14.30
2022-09-10T05:23:24.179Z,14.40
2022-09-10T05:25:51.832Z,14.50
2022-09-10T05:28:20.828Z,14.50
2022-09-10T05:30:51.494Z,14.60
2022-09-10T05:33:19.574Z,14.60
2022-09-10T05:35:49.109Z,14.60
2022-09-10T05:38:16.678Z,14.60
2022-09-10T05:40:45.642Z,14.60
2022-09-10T05:43:13.250Z,14.60
2022-09-10T05:45:40.922Z,14.60
2022-09-10T05:48:08.586Z,14.60
2022-09-10T05:50:38.383Z,14.60
2022-09-10T05:53:06.306Z,14.50
2022-09-10T05:55:33.906Z,14.40
2022-09-10T05:58:03.458Z,14.40
2022-09-10T06:00:31.082Z,14.40
2022-09-10T06:02:58.765Z,14.40
2022-09-10T06:05:26.551Z,14.50
2022-09-10T06:07:54.146Z,14.60
2022-09-10T06:10:21.735Z,14.70
2022-09-10T06:12:51.927Z,14.80
2022-09-10T06:15:21.211Z,14.90
2022-09-10T06:17:49.975Z,14.90
2022-09-10T06:20:17.571Z,15.00
2022-09-10T06:22:45.243Z,15.00
2022-09-10T06:25:12.889Z,15.00
2022-09-10T06:27:41.367Z,15.10
2022-09-10T06:30:09.251Z,15.10
2022-09-10T06:32:39.221Z,15.20
2022-09-10T06:35:07.241Z,15.20
2022-09-10T06:37:35.088Z,15.20
2022-09-10T06:40:02.960Z,15.30
2022-09-10T06:42:32.143Z,15.40
2022-09-10T06:45:00.383Z,15.50
2022-09-10T06:48:12.862Z,15.60
2022-09-10T06:50:17.037Z,15.60
2022-09-10T06:52:44.602Z,15.70
2022-09-10T06:55:12.818Z,15.80
2022-09-10T06:57:40.723Z,15.90
2022-09-10T07:00:08.987Z,16.00
2022-09-10T07:02:36.692Z,16.10
2022-09-10T07:05:04.428Z,16.20
2022-09-10T07:07:33.343Z,16.30
2022-09-10T07:10:01.404Z,16.40
2022-09-10T07:12:29.033Z,16.50
2022-09-10T07:14:56.619Z,16.60
2022-09-10T07:17:26.007Z,16.80
2022-09-10T07:19:56.603Z,16.80
2022-09-10T07:22:24.269Z,17.00
2022-09-10T07:24:55.286Z,17.10
2022-09-10T07:27:22.927Z,17.20
2022-09-10T07:32:10.561Z,17.30
2022-09-10T07:34:41.108Z,17.60
2022-09-10T07:37:08.699Z,17.50
2022-09-10T07:39:36.394Z,17.50
2022-09-10T07:42:04.095Z,17.50
2022-09-10T07:44:31.698Z,17.60
2022-09-10T07:46:59.289Z,17.60
2022-09-10T07:49:28.224Z,17.50
2022-09-10T07:51:59.782Z,17.50
2022-09-10T07:54:28.481Z,17.50
2022-09-10T07:56:56.143Z,17.50
2022-09-10T07:59:23.748Z,17.50
2022-09-10T08:01:51.340Z,17.50
2022-09-10T08:04:18.996Z,17.40
2022-09-10T08:06:48.040Z,17.50
2022-09-10T08:09:16.242Z,17.40
2022-09-10T08:11:43.822Z,17.40
2022-09-10T08:14:13.270Z,17.40
2022-09-10T08:16:44.278Z,17.50
2022-09-10T08:19:13.770Z,17.50
2022-09-10T08:21:41.518Z,17.40
2022-09-10T08:24:11.628Z,17.50
2022-09-10T08:26:39.341Z,17.50
2022-09-10T08:29:07.129Z,17.50
2022-09-10T08:31:36.975Z,17.60
2022-09-10T08:34:04.658Z,17.50
2022-09-10T08:36:32.307Z,17.60
2022-09-10T08:39:03.032Z,17.60
2022-09-10T08:41:38.469Z,17.60
2022-09-10T08:44:11.502Z,17.70
2022-09-10T08:46:44.300Z,17.70
2022-09-10T08:49:14.611Z,17.80
2022-09-10T08:51:45.039Z,17.80
2022-09-10T08:54:14.425Z,17.90
2022-09-10T08:56:43.415Z,17.90
2022-09-10T08:59:17.159Z,18.00
2022-09-10T09:01:46.756Z,18.10
2022-09-10T09:04:17.500Z,18.10
2022-09-10T09:06:47.529Z,18.30
2022-09-10T09:09:15.957Z,18.30
2022-09-10T09:11:49.859Z,18.40
2022-09-10T09:14:25.039Z,18.50
2022-09-10T09:17:02.014Z,18.60
2022-09-10T09:19:32.973Z,18.70
2022-09-10T09:22:05.706Z,18.80
2022-09-10T09:24:37.850Z,19.00
2022-09-10T09:27:10.107Z,19.10
2022-09-10T09:29:42.002Z,19.10
2022-09-10T09:32:13.129Z,19.20
2022-09-10T09:34:42.599Z,19.30
2022-09-10T09:37:14.622Z,19.30
2022-09-10T09:39:44.453Z,19.30
2022-09-10T09:42:15.885Z,19.40
2022-09-10T09:44:48.336Z,19.50
2022-09-10T09:47:16.005Z,19.60
2022-09-10T09:49:43.636Z,19.70
2022-09-10T09:52:18.418Z,19.80
2022-09-10T09:55:13.420Z,19.90
2022-09-10T09:57:38.955Z,19.90
2022-09-10T10:00:31.440Z,20.10
2022-09-10T10:03:04.428Z,20.20
2022-09-10T10:05:32.028Z,20.30
2022-09-10T10:07:59.865Z,20.50
2022-09-10T10:10:28.509Z,20.60
2022-09-10T10:12:57.427Z,20.80
2022-09-10T10:15:42.862Z,20.80
2022-09-10T10:18:25.339Z,20.90
2022-09-10T10:21:10.877Z,21.20
2022-09-10T10:23:39.504Z,21.30
2022-09-10T10:26:17.443Z,21.50
2022-09-10T10:28:50.692Z,21.60
2022-09-10T10:31:18.953Z,21.70
2022-09-10T10:33:49.656Z,21.70
2022-09-10T10:36:21.304Z,21.70
2022-09-10T10:38:54.140Z,21.80
2022-09-10T10:41:34.322Z,22.00
2022-09-10T10:44:12.643Z,22.10
2022-09-10T10:46:43.906Z,22.20
2022-09-10T10:49:18.178Z,22.20
2022-09-10T10:51:49.705Z,22.20
2022-09-10T10:54:34.472Z,22.30
2022-09-10T10:57:09.323Z,22.30
2022-09-10T10:59:44.731Z,22.40
2022-09-10T11:02:15.089Z,22.40
2022-09-10T11:04:44.975Z,22.40
2022-09-10T11:07:18.200Z,22.40
2022-09-10T11:09:49.237Z,22.30
2022-09-10T11:12:20.083Z,22.20
2022-09-10T11:14:51.385Z,22.10
2022-09-10T11:17:20.883Z,22.10
2022-09-10T11:20:11.182Z,22.20
2022-09-10T11:22:45.448Z,22.10
2022-09-10T11:25:19.304Z,22.10
2022-09-10T11:27:49.502Z,22.20
2022-09-10T11:30:19.192Z,22.40
2022-09-10T11:32:50.441Z,22.40
2022-09-10T11:35:21.941Z,22.60
2022-09-10T11:37:55.590Z,22.60
2022-09-10T11:40:26.022Z,22.70
2022-09-10T11:42:56.299Z,22.70
2022-09-10T11:45:30.195Z,22.70
2022-09-10T11:48:00.875Z,22.90
2022-09-10T11:50:34.768Z,22.90
2022-09-10T11:53:03.955Z,23.00
2022-09-10T11:55:36.304Z,23.10
2022-09-10T11:58:05.854Z,23.20
2022-09-10T12:00:41.588Z,23.20
2022-09-10T12:03:21.218Z,23.20
2022-09-10T12:05:55.788Z,23.40
2022-09-10T12:08:29.516Z,23.50
2022-09-10T12:11:05.971Z,23.50
2022-09-10T12:13:37.150Z,23.50
2022-09-10T12:16:10.330Z,23.50
2022-09-10T12:18:43.085Z,23.50
2022-09-10T12:21:16.403Z,23.60
2022-09-10T12:23:44.385Z,23.70
2022-09-10T12:26:13.086Z,23.80
2022-09-10T12:28:57.524Z,23.80
2022-09-10T12:31:27.559Z,23.90
2022-09-10T12:34:12.350Z,23.80
2022-09-10T12:36:58.487Z,23.80
2022-09-10T12:39:26.753Z,23.80
2022-09-10T12:41:55.654Z,23.80
2022-09-10T12:44:34.603Z,23.80
2022-09-10T12:47:35.939Z,23.80
2022-09-10T12:50:07.817Z,23.70
2022-09-10T12:52:40.509Z,23.70
2022-09-10T12:55:15.564Z,23.60
2022-09-10T12:57:47.420Z,23.40
2022-09-10T13:00:19.499Z,23.50
2022-09-10T13:02:50.089Z,23.50
2022-09-10T13:05:36.241Z,23.50
2022-09-10T13:08:09.323Z,23.50
2022-09-10T13:10:37.898Z,23.50
2022-09-10T13:13:08.079Z,23.50
2022-09-10T13:15:38.466Z,23.50
2022-09-10T13:18:29.574Z,23.60
2022-09-10T13:20:58.776Z,23.80
2022-09-10T13:23:44.233Z,23.90
2022-09-10T13:26:31.232Z,24.00
2022-09-10T13:29:09.354Z,24.20
2022-09-10T13:31:39.849Z,24.40
2022-09-10T13:34:22.718Z,24.50
2022-09-10T13:36:58.721Z,24.50
2022-09-10T13:39:35.533Z,24.60
2022-09-10T13:42:12.727Z,24.60
2022-09-10T13:45:08.120Z,24.50
2022-09-10T13:47:41.455Z,24.60
2022-09-10T13:50:14.521Z,24.50
2022-09-10T13:52:45.489Z,24.50
2022-09-10T13:55:16.422Z,24.50
2022-09-10T13:57:45.867Z,24.50
2022-09-10T14:00:19.914Z,24.60
2022-09-10T14:02:50.855Z,24.50
2022-09-10T14:05:26.391Z,24.50
2022-09-10T14:07:55.861Z,24.40
2022-09-10T14:10:24.448Z,24.40
2022-09-10T14:12:53.570Z,24.30
2022-09-10T14:15:23.145Z,24.30
2022-09-10T14:17:55.904Z,24.40
2022-09-10T14:20:26.014Z,24.50
2022-09-10T14:22:58.631Z,24.50
2022-09-10T14:25:31.383Z,24.50
2022-09-10T14:28:18.150Z,24.50
2022-09-10T14:30:46.825Z,24.50
2022-09-10T14:33:29.646Z,24.40
2022-09-10T14:35:58.906Z,24.40
2022-09-10T14:38:27.606Z,24.30
2022-09-10T14:40:58.529Z,24.20
2022-09-10T14:43:28.884Z,24.20
2022-09-10T14:45:57.436Z,24.10
2022-09-10T14:48:35.724Z,24.00
2022-09-10T14:51:13.502Z,23.90
2022-09-10T14:53:41.751Z,23.90
2022-09-10T14:56:21.655Z,23.80
2022-09-10T14:58:51.275Z,23.80
2022-09-10T15:01:19.560Z,23.80
2022-09-10T15:03:48.941Z,23.80
2022-09-10T15:06:17.243Z,23.90
2022-09-10T15:08:45.195Z,24.00
2022-09-10T15:11:15.189Z,24.10
2022-09-10T15:13:43.969Z,24.20
2022-09-10T15:16:12.514Z,24.20
2022-09-10T15:18:40.927Z,24.30
2022-09-10T15:21:12.009Z,24.40
2022-09-10T15:23:39.750Z,24.40
2022-09-10T15:26:07.812Z,24.50
2022-09-10T15:28:35.417Z,24.50
2022-09-10T15:31:03.049Z,24.60
2022-09-10T15:33:31.093Z,24.50
2022-09-10T15:35:59.572Z,24.50
2022-09-10T15:38:31.103Z,24.50
2022-09-10T15:41:08.758Z,24.50
2022-09-10T15:43:39.450Z,24.60
2022-09-10T15:46:08.006Z,24.60
2022-09-10T15:48:36.237Z,24.70
2022-09-10T15:51:04.840Z,24.70
2022-09-10T15:53:34.770Z,24.70
2022-09-10T15:56:02.899Z,24.50
2022-09-10T15:58:31.204Z,24.50
2022-09-10T16:01:02.845Z,24.50
2022-09-10T16:03:30.672Z,24.60
2022-09-10T16:06:02.193Z,24.70
2022-09-10T16:08:30.060Z,24.60
2022-09-10T16:10:59.448Z,24.70
2022-09-10T16:13:27.251Z,24.70
2022-09-10T16:16:04.665Z,24.60
2022-09-10T16:18:33.345Z,24.70
2022-09-10T16:21:09.368Z,24.70
2022-09-10T16:23:37.424Z,24.70
2022-09-10T16:26:06.991Z,24.50
2022-09-10T16:28:34.881Z,24.50
2022-09-10T16:31:16.012Z,24.50
2022-09-10T16:33:44.033Z,24.60
2022-09-10T16:36:12.536Z,24.50
2022-09-10T16:38:41.263Z,24.30
2022-09-10T16:41:11.698Z,24.10
2022-09-10T16:43:39.605Z,24.10
2022-09-10T16:46:09.242Z,24.30
2022-09-10T16:48:37.538Z,24.30
2022-09-10T16:51:06.369Z,24.10
2022-09-10T16:53:36.470Z,24.10
2022-09-10T16:56:05.757Z,24.20
2022-09-10T16:58:36.044Z,24.10
2022-09-10T17:01:04.528Z,24.10
2022-09-10T17:03:32.174Z,24.00
2022-09-10T17:06:00.063Z,23.60
2022-09-10T17:08:28.269Z,23.40
2022-09-10T17:10:56.101Z,23.20
2022-09-10T17:13:23.682Z,23.10
2022-09-10T17:15:53.256Z,23.20
2022-09-10T17:18:21.923Z,23.10
2022-09-10T17:20:49.514Z,22.90
2022-09-10T17:23:18.659Z,23.00
2022-09-10T17:25:46.428Z,23.00
2022-09-10T17:28:14.080Z,22.80
2022-09-10T17:30:42.230Z,22.60
2022-09-10T17:33:11.154Z,22.60
2022-09-10T17:35:38.870Z,22.50
2022-09-10T17:38:06.834Z,22.30
2022-09-10T17:40:34.420Z,22.40
2022-09-10T17:43:02.049Z,22.40
2022-09-10T17:45:29.657Z,22.10
2022-09-10T17:47:57.379Z,21.90
2022-09-10T17:50:27.661Z,21.90
2022-09-10T17:52:55.291Z,21.80
2022-09-10T17:55:24.587Z,21.80
2022-09-10T17:57:52.161Z,21.60
2022-09-10T18:00:20.077Z,21.80
2022-09-10T18:02:47.726Z,21.60
2022-09-10T18:05:15.327Z,21.50
2022-09-10T18:07:45.743Z,21.30
2022-09-10T18:10:13.650Z,21.10
2022-09-10T18:12:41.627Z,21.00
2022-09-10T18:15:09.880Z,20.90
2022-09-10T18:17:38.018Z,20.80
2022-09-10T18:20:06.025Z,20.80
2022-09-10T18:22:34.450Z,20.60
2022-09-10T18:25:03.393Z,20.50
2022-09-10T18:27:31.031Z,20.50
2022-09-10T18:30:00.348Z,20.50
2022-09-10T18:32:28.161Z,20.40
2022-09-10T18:34:57.245Z,20.30
2022-09-10T18:37:24.822Z,20.10
2022-09-10T18:39:53.696Z,20.30
2022-09-10T18:42:22.802Z,20.50
2022-09-10T18:44:50.409Z,20.40
2022-09-10T18:47:41.238Z,20.30
2022-09-10T18:50:06.712Z,20.10
2022-09-10T18:52:35.738Z,20.10
2022-09-10T18:55:03.357Z,20.00
2022-09-10T18:57:32.291Z,19.90
2022-09-10T19:00:00.398Z,19.80
2022-09-10T19:02:28.081Z,19.70
2022-09-10T19:05:10.614Z,19.70
2022-09-10T19:07:39.124Z,19.70
2022-09-10T19:10:07.338Z,19.50
2022-09-10T19:12:36.246Z,19.60
2022-09-10T19:15:03.933Z,19.50
2022-09-10T19:17:31.527Z,19.50
2022-09-10T19:19:59.111Z,19.40
2022-09-10T19:22:26.671Z,19.40
2022-09-10T19:24:55.788Z,19.40
2022-09-10T19:27:23.883Z,19.50
2022-09-10T19:29:53.748Z,19.40
2022-09-10T19:32:21.331Z,19.60
2022-09-10T19:34:49.990Z,19.50
2022-09-10T19:37:17.555Z,19.40
2022-09-10T19:39:45.395Z,19.40
2022-09-10T19:42:13.158Z,19.40
2022-09-10T19:44:40.801Z,19.30
2022-09-10T19:47:09.722Z,19.20
2022-09-10T19:49:37.670Z,19.40
2022-09-10T19:52:05.796Z,19.50
2022-09-10T19:54:33.647Z,19.70
2022-09-10T19:57:01.212Z,19.40
2022-09-10T19:59:28.811Z,19.20
2022-09-10T20:01:56.512Z,19.10
2022-09-10T20:04:25.837Z,19.10
2022-09-10T20:06:53.383Z,19.10
2022-09-10T20:09:21.056Z,19.00
2022-09-10T20:11:48.934Z,18.90
2022-09-10T20:14:16.523Z,18.90
2022-09-10T20:16:45.097Z,18.90
2022-09-10T20:19:13.605Z,18.70
2022-09-10T20:21:42.634Z,18.90
2022-09-10T20:24:10.658Z,18.90
2022-09-10T20:26:41.158Z,18.70
2022-09-10T20:29:11.307Z,18.70
2022-09-10T20:31:40.867Z,18.80
2022-09-10T20:34:09.350Z,18.70
2022-09-10T20:36:37.892Z,18.80
2022-09-10T20:39:07.273Z,18.90
2022-09-10T20:41:35.085Z,18.80
2022-09-10T20:44:02.801Z,18.70
2022-09-10T20:46:31.472Z,18.70
2022-09-10T20:49:03.013Z,18.60
2022-09-10T20:51:31.827Z,18.80
2022-09-10T20:53:59.860Z,18.60
2022-09-10T20:56:29.134Z,18.50
2022-09-10T20:58:57.304Z,18.60
2022-09-10T21:01:25.840Z,18.60
2022-09-10T21:03:54.114Z,18.60
2022-09-10T21:06:23.444Z,18.60
2022-09-10T21:08:51.061Z,18.50
2022-09-10T21:11:19.490Z,18.40
2022-09-10T21:13:49.704Z,18.60
2022-09-10T21:16:18.063Z,18.50
2022-09-10T21:18:52.091Z,18.60
2022-09-10T21:21:22.749Z,18.60
2022-09-10T21:23:51.063Z,18.60
2022-09-10T21:26:19.786Z,18.50
2022-09-10T21:28:50.884Z,18.40
2022-09-10T21:31:18.489Z,18.50
2022-09-10T21:33:46.199Z,18.40
2022-09-10T21:36:14.499Z,18.40
2022-09-10T21:38:42.287Z,18.50
2022-09-10T21:41:12.816Z,18.60
2022-09-10T21:43:43.228Z,18.40
2022-09-10T21:46:13.496Z,18.40
2022-09-10T21:48:42.403Z,18.40
2022-09-10T21:51:13.201Z,18.30
2022-09-10T21:53:41.786Z,18.30
2022-09-10T21:56:10.908Z,18.30
2022-09-10T21:58:40.243Z,18.40
2022-09-10T22:01:12.849Z,18.30
2022-09-10T22:03:40.542Z,18.20
2022-09-10T22:06:08.653Z,18.20
2022-09-10T22:08:37.011Z,18.20
2022-09-10T22:11:08.401Z,18.20
2022-09-10T22:13:37.880Z,18.10
2022-09-10T22:16:06.257Z,18.20
2022-09-10T22:18:35.280Z,18.00
2022-09-10T22:21:02.867Z,18.00
2022-09-10T22:23:30.894Z,18.00
2022-09-10T22:26:03.066Z,18.00
2022-09-10T22:28:34.627Z,18.00
2022-09-10T22:31:07.174Z,17.90
2022-09-10T22:33:38.063Z,17.80
2022-09-10T22:36:09.367Z,17.80
2022-09-10T22:38:37.039Z,18.10
2022-09-10T22:41:05.032Z,18.10
2022-09-10T22:43:32.607Z,18.00
2022-09-10T22:46:00.199Z,17.90
2022-09-10T22:48:27.788Z,17.90
2022-09-10T22:50:56.916Z,17.70
2022-09-10T22:53:24.514Z,17.70
2022-09-10T22:55:53.790Z,17.70
2022-09-10T22:58:21.370Z,17.80
2022-09-10T23:00:48.958Z,17.80
2022-09-10T23:03:16.673Z,17.70
2022-09-10T23:05:44.308Z,17.60
2022-09-10T23:08:13.275Z,17.70
2022-09-10T23:10:40.848Z,17.60
2022-09-10T23:13:08.477Z,17.60
2022-09-10T23:15:36.402Z,17.60
2022-09-10T23:18:03.982Z,17.70
2022-09-10T23:20:32.187Z,17.70
2022-09-10T23:22:59.795Z,17.70
2022-09-10T23:25:28.774Z,17.70
2022-09-10T23:27:56.426Z,17.60
2022-09-10T23:30:24.070Z,17.60
2022-09-10T23:32:53.968Z,17.70
2022-09-10T23:35:23.670Z,17.60
2022-09-10T23:37:52.335Z,17.60
2022-09-10T23:40:26.256Z,17.50
2022-09-10T23:43:00.712Z,17.50
2022-09-10T23:45:28.661Z,17.40
2022-09-10T23:47:57.043Z,17.40
2022-09-10T23:50:25.299Z,17.50
2022-09-10T23:52:54.992Z,17.50
2022-09-10T23:55:22.964Z,17.50
2022-09-10T23:57:50.947Z,17.50
